Terminal Aerodrome Forecast
Issued by NWS

Home | Current Version | Previous Version | Graphics & Text | Print | Product List | Glossary On
Versions: 1 2 3 4 5 6 7 8 9 10 11 12 13 14 15 16
948
FTUS43 KGRB 141732
TAFCWA
TAF
KCWA 141732Z 1418/1518 08011G18KT P6SM SHRA BKN022 OVC060
     FM142000 08010G19KT 5SM SHRA OVC015
     FM142200 03012G19KT 5SM SHRA OVC006
     FM151200 33012G25KT P6SM -SHRA BKN020
     FM151700 32012G21KT P6SM -SHRA BKN035=

USA.gov is the U.S. government's official web portal to all federal, state and local government web resources and services.